createdAt,value
2023-03-01T00:01:46.714Z,27.20
2023-03-01T00:04:36.238Z,28.90
2023-03-01T00:07:34.943Z,27.60
2023-03-01T00:10:29.962Z,26.00
2023-03-01T00:13:20.402Z,23.20
2023-03-01T00:16:13.459Z,27.50
2023-03-01T00:18:58.939Z,26.00
2023-03-01T00:21:41.705Z,29.30
2023-03-01T00:24:32.469Z,31.40
2023-03-01T00:27:23.058Z,29.00
2023-03-01T00:30:13.710Z,30.30
2023-03-01T00:33:03.631Z,30.00
2023-03-01T00:35:55.451Z,30.00
2023-03-01T00:38:46.495Z,30.10
2023-03-01T00:41:35.818Z,29.90
2023-03-01T00:44:25.256Z,25.80
2023-03-01T00:47:19.047Z,24.10
2023-03-01T00:50:12.353Z,25.50
2023-03-01T00:53:01.874Z,23.70
2023-03-01T00:55:52.249Z,21.90
2023-03-01T00:58:42.564Z,22.90
2023-03-01T01:01:32.817Z,22.00
2023-03-01T01:04:25.369Z,21.50
2023-03-01T01:07:29.099Z,21.50
2023-03-01T01:10:19.458Z,18.40
2023-03-01T01:13:09.445Z,13.20
2023-03-01T01:16:03.613Z,13.80
2023-03-01T01:18:54.767Z,16.80
2023-03-01T01:21:48.847Z,20.90
2023-03-01T01:24:37.883Z,22.40
2023-03-01T01:27:27.591Z,24.00
2023-03-01T01:30:20.843Z,23.80
2023-03-01T01:33:09.831Z,24.60
2023-03-01T01:35:59.482Z,22.40
2023-03-01T01:38:49.672Z,24.30
2023-03-01T01:41:38.988Z,22.40
2023-03-01T01:44:30.326Z,22.50
2023-03-01T01:47:24.155Z,22.70
2023-03-01T01:50:19.735Z,20.50
2023-03-01T01:53:20.605Z,20.60
2023-03-01T01:56:12.532Z,21.40
2023-03-01T01:59:03.040Z,19.70
2023-03-01T02:01:53.636Z,20.80
2023-03-01T02:04:43.216Z,19.50
2023-03-01T02:07:35.042Z,17.50
2023-03-01T02:10:25.681Z,19.20
2023-03-01T02:13:16.724Z,17.10
2023-03-01T02:16:10.714Z,18.10
2023-03-01T02:18:56.102Z,18.90
2023-03-01T02:21:52.237Z,21.70
2023-03-01T02:24:53.478Z,24.00
2023-03-01T02:28:13.266Z,24.50
2023-03-01T02:31:20.683Z,26.10
2023-03-01T02:34:12.879Z,27.20
2023-03-01T02:37:05.679Z,26.10
2023-03-01T02:40:01.141Z,29.70
2023-03-01T02:42:56.820Z,28.20
2023-03-01T02:45:54.810Z,28.40
2023-03-01T02:51:50.683Z,28.30
2023-03-01T02:54:45.081Z,29.90
2023-03-01T02:57:37.853Z,27.50
2023-03-01T03:00:29.631Z,26.80
2023-03-01T03:03:22.323Z,24.60
2023-03-01T03:06:12.125Z,20.60
2023-03-01T03:09:02.049Z,22.80
2023-03-01T03:11:58.004Z,23.60
2023-03-01T03:14:48.506Z,25.80
2023-03-01T03:17:41.774Z,28.20
2023-03-01T03:20:32.456Z,26.50
2023-03-01T03:23:33.536Z,29.20
2023-03-01T03:26:25.770Z,33.70
2023-03-01T03:29:15.451Z,32.50
2023-03-01T03:32:05.963Z,28.80
2023-03-01T03:35:01.919Z,31.10
2023-03-01T03:38:02.900Z,24.80
2023-03-01T03:41:03.968Z,25.90
2023-03-01T03:44:02.035Z,25.30
2023-03-01T03:46:54.544Z,24.20
2023-03-01T03:49:43.960Z,22.50
2023-03-01T03:52:34.615Z,23.80
2023-03-01T03:55:30.732Z,23.00
2023-03-01T03:58:24.092Z,23.30
2023-03-01T04:01:13.672Z,22.70
2023-03-01T04:04:08.280Z,21.40
2023-03-01T04:07:00.723Z,16.70
2023-03-01T04:09:50.388Z,21.60
2023-03-01T04:12:39.914Z,17.30
2023-03-01T04:15:31.501Z,17.50
2023-03-01T04:18:25.792Z,16.60
2023-03-01T04:21:15.723Z,24.20
2023-03-01T04:24:07.683Z,26.10
2023-03-01T04:26:50.882Z,24.90
2023-03-01T04:29:40.138Z,24.70
2023-03-01T04:32:30.078Z,27.90
2023-03-01T04:35:25.042Z,26.80
2023-03-01T04:38:14.700Z,25.20
2023-03-01T04:41:04.306Z,24.20
2023-03-01T04:43:56.912Z,24.40
2023-03-01T04:47:49.856Z,24.40
2023-03-01T04:50:34.823Z,21.90
2023-03-01T04:53:33.562Z,24.10
2023-03-01T04:56:30.319Z,17.30
2023-03-01T04:59:24.153Z,21.50
2023-03-01T05:02:13.820Z,16.30
2023-03-01T05:05:06.613Z,18.10
2023-03-01T05:08:01.358Z,20.00
2023-03-01T05:10:53.598Z,21.60
2023-03-01T05:13:43.878Z,20.80
2023-03-01T05:16:40.036Z,22.60
2023-03-01T05:19:33.384Z,22.30
2023-03-01T05:22:23.586Z,22.20
2023-03-01T05:25:14.598Z,22.40
2023-03-01T05:28:05.711Z,21.80
2023-03-01T05:30:58.480Z,20.50
2023-03-01T05:33:47.930Z,20.30
2023-03-01T05:36:38.873Z,19.20
2023-03-01T05:39:55.606Z,20.70
2023-03-01T05:42:47.300Z,11.10
2023-03-01T05:45:33.185Z,16.60
2023-03-01T05:48:25.241Z,16.10
2023-03-01T05:51:14.759Z,18.00
2023-03-01T05:54:06.710Z,13.80
2023-03-01T05:57:04.289Z,19.50
2023-03-01T05:59:54.381Z,17.60
2023-03-01T06:02:45.175Z,17.00
2023-03-01T06:05:46.499Z,19.60
2023-03-01T06:08:35.734Z,22.30
2023-03-01T06:11:24.755Z,22.60
2023-03-01T06:14:15.245Z,21.40
2023-03-01T06:17:05.196Z,22.20
2023-03-01T06:19:55.637Z,20.30
2023-03-01T06:22:48.086Z,22.10
2023-03-01T06:25:29.093Z,21.20
2023-03-01T06:28:19.990Z,22.10
2023-03-01T06:31:12.570Z,22.60
2023-03-01T06:34:05.045Z,24.10
2023-03-01T06:36:57.707Z,19.60
2023-03-01T06:39:47.286Z,21.70
2023-03-01T06:42:37.379Z,20.60
2023-03-01T06:45:27.992Z,19.80
2023-03-01T06:48:17.539Z,19.00
2023-03-01T06:51:07.181Z,21.70
2023-03-01T06:55:20.170Z,22.60
2023-03-01T06:57:10.750Z,21.30
2023-03-01T07:00:01.570Z,21.90
2023-03-01T07:02:52.258Z,21.80
2023-03-01T07:05:45.001Z,18.50
2023-03-01T07:08:34.299Z,18.60
2023-03-01T07:11:25.656Z,21.10
2023-03-01T07:14:15.261Z,21.60
2023-03-01T07:17:07.714Z,18.50
2023-03-01T07:19:39.608Z,18.70
2023-03-01T07:22:11.235Z,18.40
2023-03-01T07:25:02.982Z,16.90
2023-03-01T07:27:54.160Z,24.60
2023-03-01T07:30:45.566Z,23.80
2023-03-01T07:33:35.748Z,22.70
2023-03-01T07:36:25.784Z,23.90
2023-03-01T07:39:15.137Z,21.20
2023-03-01T07:44:52.883Z,20.20
2023-03-01T07:47:42.259Z,21.80
2023-03-01T07:50:31.409Z,24.50
2023-03-01T07:53:24.162Z,21.70
2023-03-01T07:56:18.041Z,24.50
2023-03-01T07:59:01.475Z,23.60
2023-03-01T08:01:51.812Z,21.30
2023-03-01T08:04:41.646Z,21.40
2023-03-01T08:07:33.077Z,25.10
2023-03-01T08:10:24.384Z,24.60
2023-03-01T08:13:14.513Z,32.20
2023-03-01T08:16:07.699Z,24.50
2023-03-01T08:19:01.308Z,29.10
2023-03-01T08:21:51.365Z,29.60
2023-03-01T08:24:41.098Z,23.30
2023-03-01T08:27:30.882Z,23.10
2023-03-01T08:30:24.412Z,19.20
2023-03-01T08:33:14.134Z,21.00
2023-03-01T08:36:09.139Z,19.20
2023-03-01T08:39:01.162Z,19.00
2023-03-01T08:41:51.027Z,17.20
2023-03-01T08:44:40.531Z,18.50
2023-03-01T08:47:30.198Z,16.80
2023-03-01T08:50:19.977Z,18.30
2023-03-01T08:53:13.940Z,17.40
2023-03-01T08:56:03.744Z,14.40
2023-03-01T08:58:53.479Z,13.90
2023-03-01T09:01:48.331Z,16.10
2023-03-01T09:04:38.121Z,17.10
2023-03-01T09:07:29.283Z,16.80
2023-03-01T09:10:19.270Z,15.00
2023-03-01T09:13:10.977Z,13.70
2023-03-01T09:16:02.655Z,11.70
2023-03-01T09:18:53.631Z,14.00
2023-03-01T09:21:53.020Z,13.10
2023-03-01T09:24:43.328Z,12.80
2023-03-01T09:27:34.568Z,13.00
2023-03-01T09:30:25.143Z,13.40
2023-03-01T09:33:16.874Z,15.70
2023-03-01T09:36:13.101Z,13.70
2023-03-01T09:39:06.697Z,11.90
2023-03-01T09:41:54.920Z,12.20
2023-03-01T09:44:49.905Z,11.70
2023-03-01T09:47:41.204Z,10.80
2023-03-01T09:50:40.340Z,12.60
2023-03-01T09:56:22.291Z,9.60
2023-03-01T09:59:27.816Z,10.50
2023-03-01T10:02:28.747Z,15.00
2023-03-01T10:05:48.846Z,18.70
2023-03-01T10:08:42.954Z,18.00
2023-03-01T10:11:38.106Z,14.80
2023-03-01T10:14:37.473Z,17.60
2023-03-01T10:17:35.053Z,19.40
2023-03-01T10:20:27.680Z,17.70
2023-03-01T10:23:13.548Z,16.00
2023-03-01T10:26:29.182Z,16.30
2023-03-01T10:29:20.915Z,17.20
2023-03-01T10:32:13.663Z,19.30
2023-03-01T10:35:21.184Z,14.20
2023-03-01T10:38:16.094Z,14.70
2023-03-01T10:41:09.407Z,12.20
2023-03-01T10:44:01.335Z,11.80
2023-03-01T10:47:02.227Z,11.70
2023-03-01T10:50:06.055Z,12.10
2023-03-01T10:53:01.807Z,13.10
2023-03-01T10:56:04.889Z,15.10
2023-03-01T10:59:04.583Z,14.80
2023-03-01T11:02:24.451Z,11.10
2023-03-01T11:05:26.134Z,15.10
2023-03-01T11:08:15.597Z,10.40
2023-03-01T11:11:25.395Z,10.70
2023-03-01T11:17:24.255Z,11.10
2023-03-01T11:20:26.234Z,10.70
2023-03-01T11:23:18.191Z,9.00
2023-03-01T11:26:03.391Z,8.10
2023-03-01T11:29:00.290Z,10.60
2023-03-01T11:31:57.674Z,10.60
2023-03-01T11:34:55.904Z,8.60
2023-03-01T11:37:57.105Z,9.80
2023-03-01T11:40:54.345Z,9.90
2023-03-01T11:43:54.719Z,10.90
2023-03-01T11:47:07.203Z,10.60
2023-03-01T11:50:42.029Z,9.60
2023-03-01T11:53:51.843Z,9.30
2023-03-01T11:56:51.394Z,11.00
2023-03-01T12:00:16.976Z,9.20
2023-03-01T12:03:31.654Z,10.00
2023-03-01T12:06:52.173Z,9.10
2023-03-01T12:09:54.000Z,8.20
2023-03-01T12:13:17.504Z,9.70
2023-03-01T12:16:37.462Z,8.60
2023-03-01T12:19:52.877Z,10.30
2023-03-01T12:22:56.621Z,9.90
2023-03-01T12:25:52.790Z,10.20
2023-03-01T12:29:02.496Z,9.80
2023-03-01T12:32:30.176Z,9.80
2023-03-01T12:35:51.071Z,8.60
2023-03-01T12:39:04.316Z,7.50
2023-03-01T12:42:08.004Z,9.60
2023-03-01T12:45:32.133Z,9.90
2023-03-01T12:48:44.283Z,6.70
2023-03-01T12:51:39.246Z,7.70
2023-03-01T12:54:31.760Z,6.60
2023-03-01T12:57:37.667Z,7.90
2023-03-01T13:00:37.987Z,7.70
2023-03-01T13:03:37.274Z,9.40
2023-03-01T13:06:42.944Z,10.70
2023-03-01T13:09:40.446Z,7.20
2023-03-01T13:13:01.327Z,8.30
2023-03-01T13:16:00.477Z,9.30
2023-03-01T13:18:51.137Z,9.40
2023-03-01T13:21:40.896Z,8.90
2023-03-01T13:24:38.475Z,9.10
2023-03-01T13:27:31.209Z,8.20
2023-03-01T13:30:43.966Z,11.00
2023-03-01T13:33:50.850Z,8.20
2023-03-01T13:36:51.103Z,10.10
2023-03-01T13:39:42.409Z,10.00
2023-03-01T13:43:05.213Z,8.80
2023-03-01T13:45:57.270Z,8.80
2023-03-01T13:48:51.662Z,8.50
2023-03-01T13:51:40.675Z,15.20
2023-03-01T13:54:33.594Z,13.20
2023-03-01T13:57:25.478Z,12.10
2023-03-01T14:00:29.779Z,8.60
2023-03-01T14:03:20.683Z,12.50
2023-03-01T14:06:17.199Z,8.70
2023-03-01T14:09:17.126Z,9.40
2023-03-01T14:12:33.996Z,10.30
2023-03-01T14:15:30.435Z,9.10
2023-03-01T14:18:27.700Z,13.10
2023-03-01T14:21:18.410Z,13.60
2023-03-01T14:24:16.155Z,11.60
2023-03-01T14:27:05.991Z,10.70
2023-03-01T14:30:04.628Z,10.80
2023-03-01T14:33:02.392Z,13.50
2023-03-01T14:35:57.862Z,15.00
2023-03-01T14:38:48.556Z,11.60
2023-03-01T14:41:37.827Z,11.40
2023-03-01T14:44:30.425Z,12.10
2023-03-01T14:47:29.348Z,12.00
2023-03-01T14:50:25.043Z,13.30
2023-03-01T14:53:21.070Z,11.10
2023-03-01T14:56:18.130Z,10.00
2023-03-01T14:59:12.245Z,15.10
2023-03-01T15:02:04.896Z,14.70
2023-03-01T15:05:08.128Z,19.40
2023-03-01T15:08:00.818Z,15.80
2023-03-01T15:11:03.541Z,12.60
2023-03-01T15:13:55.089Z,10.70
2023-03-01T15:16:49.860Z,11.80
2023-03-01T15:19:40.931Z,11.10
2023-03-01T15:22:37.154Z,10.70
2023-03-01T15:25:30.450Z,10.30
2023-03-01T15:28:21.526Z,10.80
2023-03-01T15:31:20.861Z,10.80
2023-03-01T15:34:25.763Z,10.50
2023-03-01T15:37:44.929Z,10.50
2023-03-01T15:40:52.488Z,9.10
2023-03-01T15:43:46.013Z,10.10
2023-03-01T15:46:39.530Z,9.50
2023-03-01T15:49:49.581Z,9.90
2023-03-01T15:52:44.344Z,9.00
2023-03-01T15:55:34.526Z,9.90
2023-03-01T15:58:26.216Z,10.40
2023-03-01T16:01:17.987Z,9.30
2023-03-01T16:04:07.820Z,9.60
2023-03-01T16:06:57.434Z,8.70
2023-03-01T16:09:46.656Z,8.10
2023-03-01T16:12:36.362Z,8.90
2023-03-01T16:15:31.968Z,9.70
2023-03-01T16:18:22.910Z,8.50
2023-03-01T16:21:25.233Z,9.70
2023-03-01T16:24:15.025Z,10.80
2023-03-01T16:27:04.561Z,11.00
2023-03-01T16:29:54.211Z,9.60
2023-03-01T16:32:47.155Z,10.20
2023-03-01T16:35:42.109Z,11.00
2023-03-01T16:38:33.132Z,10.50
2023-03-01T16:41:24.969Z,10.20
2023-03-01T16:44:13.810Z,9.50
2023-03-01T16:47:04.362Z,10.60
2023-03-01T16:49:54.635Z,10.70
2023-03-01T16:52:44.165Z,10.10
2023-03-01T16:55:34.778Z,11.50
2023-03-01T16:58:25.818Z,10.90
2023-03-01T17:01:17.764Z,10.80
2023-03-01T17:04:08.056Z,13.00
2023-03-01T17:06:58.746Z,11.00
2023-03-01T17:09:48.510Z,12.10
2023-03-01T17:12:36.718Z,11.90
2023-03-01T17:15:26.676Z,11.40
2023-03-01T17:18:15.882Z,10.40
2023-03-01T17:21:08.105Z,10.40
2023-03-01T17:23:58.709Z,10.10
2023-03-01T17:26:48.310Z,10.80
2023-03-01T17:32:25.605Z,12.10
2023-03-01T17:35:15.987Z,11.50
2023-03-01T17:38:13.951Z,11.80
2023-03-01T17:41:04.960Z,11.20
2023-03-01T17:43:54.258Z,12.00
2023-03-01T17:46:49.554Z,13.00
2023-03-01T17:49:40.545Z,13.60
2023-03-01T17:52:35.776Z,14.00
2023-03-01T17:55:28.322Z,16.00
2023-03-01T17:58:22.137Z,15.80
2023-03-01T18:01:14.597Z,17.00
2023-03-01T18:03:57.634Z,16.20
2023-03-01T18:06:47.174Z,19.20
2023-03-01T18:09:36.708Z,21.90
2023-03-01T18:12:30.402Z,26.20
2023-03-01T18:15:21.288Z,25.20
2023-03-01T18:18:11.187Z,22.30
2023-03-01T18:21:04.769Z,21.00
2023-03-01T18:23:56.728Z,18.20
2023-03-01T18:26:47.773Z,19.50
2023-03-01T18:29:40.621Z,17.80
2023-03-01T18:32:32.548Z,17.70
2023-03-01T18:35:24.281Z,22.00
2023-03-01T18:38:19.000Z,21.20
2023-03-01T18:41:08.619Z,23.00
2023-03-01T18:43:58.843Z,23.80
2023-03-01T18:46:52.991Z,27.80
2023-03-01T18:49:43.627Z,31.10
2023-03-01T18:52:34.554Z,36.10
2023-03-01T18:55:24.887Z,29.50
2023-03-01T18:58:13.841Z,32.70
2023-03-01T19:01:22.676Z,34.40
2023-03-01T19:04:15.404Z,33.10
2023-03-01T19:07:06.294Z,32.10
2023-03-01T19:09:56.117Z,27.10
2023-03-01T19:12:46.077Z,28.30
2023-03-01T19:15:37.158Z,31.20
2023-03-01T19:18:26.734Z,24.20
2023-03-01T19:21:18.198Z,32.40
2023-03-01T19:24:07.903Z,28.90
2023-03-01T19:26:57.438Z,29.50
2023-03-01T19:29:47.222Z,25.80
2023-03-01T19:32:36.985Z,30.50
2023-03-01T19:35:26.511Z,31.80
2023-03-01T19:38:15.807Z,32.80
2023-03-01T19:41:08.603Z,35.40
2023-03-01T19:44:03.086Z,31.40
2023-03-01T19:46:58.594Z,30.00
2023-03-01T19:49:47.114Z,31.80
2023-03-01T19:52:33.124Z,25.70
2023-03-01T19:55:23.353Z,33.10
2023-03-01T19:58:13.389Z,30.30
2023-03-01T20:01:05.645Z,32.40
2023-03-01T20:03:55.120Z,30.90
2023-03-01T20:06:47.030Z,27.90
2023-03-01T20:09:27.737Z,28.60
2023-03-01T20:12:19.528Z,28.00
2023-03-01T20:15:10.548Z,26.10
2023-03-01T20:18:00.141Z,26.90
2023-03-01T20:20:50.674Z,27.70
2023-03-01T20:23:43.505Z,27.50
2023-03-01T20:26:33.918Z,27.30
2023-03-01T20:29:06.893Z,28.30
2023-03-01T20:31:56.673Z,27.50
2023-03-01T20:34:46.344Z,30.40
2023-03-01T20:37:35.995Z,33.90
2023-03-01T20:40:27.786Z,34.00
2023-03-01T20:43:17.021Z,34.20
2023-03-01T20:46:10.675Z,32.20
2023-03-01T20:49:01.283Z,33.10
2023-03-01T20:51:50.945Z,32.60
2023-03-01T20:57:28.892Z,29.80
2023-03-01T21:00:19.399Z,30.80
2023-03-01T21:03:09.198Z,29.50
2023-03-01T21:05:58.855Z,29.60
2023-03-01T21:08:48.968Z,29.80
2023-03-01T21:11:32.907Z,28.90
2023-03-01T21:14:16.177Z,28.50
2023-03-01T21:17:05.247Z,26.40
2023-03-01T21:19:55.062Z,25.40
2023-03-01T21:22:44.054Z,24.00
2023-03-01T21:28:12.230Z,23.90
2023-03-01T21:31:06.481Z,24.60
2023-03-01T21:33:57.616Z,26.90
2023-03-01T21:36:39.651Z,27.40
2023-03-01T21:39:29.224Z,25.90
2023-03-01T21:42:17.957Z,27.30
2023-03-01T21:45:09.039Z,24.80
2023-03-01T21:47:58.513Z,26.10
2023-03-01T21:50:55.873Z,24.50
2023-03-01T21:53:45.597Z,25.10
2023-03-01T21:56:38.193Z,25.20
2023-03-01T21:59:28.444Z,24.90
2023-03-01T22:02:17.488Z,23.90
2023-03-01T22:05:08.750Z,24.30
2023-03-01T22:07:47.936Z,23.00
2023-03-01T22:10:43.039Z,19.00
2023-03-01T22:13:31.927Z,23.70
2023-03-01T22:16:22.625Z,23.80
2023-03-01T22:19:16.497Z,24.00
2023-03-01T22:22:05.544Z,24.70
2023-03-01T22:24:45.956Z,24.10
2023-03-01T22:27:36.679Z,26.60
2023-03-01T22:30:26.772Z,25.60
2023-03-01T22:33:15.822Z,26.00
2023-03-01T22:38:59.409Z,24.10
2023-03-01T22:41:49.849Z,24.40
2023-03-01T22:44:38.911Z,23.20
2023-03-01T22:47:37.596Z,26.00
2023-03-01T22:50:26.533Z,26.20
2023-03-01T22:53:16.373Z,24.80
2023-03-01T22:56:14.479Z,24.70
2023-03-01T22:59:09.046Z,25.10
2023-03-01T23:01:49.016Z,25.00
2023-03-01T23:04:38.803Z,26.60
2023-03-01T23:07:28.737Z,25.60
2023-03-01T23:10:18.035Z,25.50
2023-03-01T23:13:07.190Z,25.40
2023-03-01T23:15:57.500Z,24.50
2023-03-01T23:18:46.955Z,23.30
2023-03-01T23:21:36.032Z,25.00
2023-03-01T23:24:30.773Z,24.40
2023-03-01T23:27:19.733Z,24.40
2023-03-01T23:30:11.212Z,24.30
2023-03-01T23:33:00.203Z,24.70
2023-03-01T23:38:37.504Z,22.20
2023-03-01T23:41:29.804Z,21.40
2023-03-01T23:44:21.119Z,26.60
2023-03-01T23:47:10.211Z,25.60
2023-03-01T23:50:00.077Z,26.20
2023-03-01T23:52:50.070Z,27.50
2023-03-01T23:56:01.180Z,27.40
2023-03-01T23:58:51.137Z,26.20
